Date,TemperatureHighF,TemperatureAvgF,TemperatureLowF,DewpointHighF,DewpointAvgF,DewpointLowF,HumidityHigh,HumidityAvg,HumidityLow,PressureMaxIn,PressureMinIn,WindSpeedMaxMPH,WindSpeedAvgMPH,GustSpeedMaxMPH,PrecipitationSumIn
2013-1-1,44.8,42.0,38.7,40.1,37.8,34.3,89,85,80,29.89,29.26,15,9,26,0.00
2013-1-2,52.9,46.6,40.6,50.2,44.3,38.7,96,91,87,30.00,29.89,14,7,23,0.16
2013-1-3,52.9,51.4,49.8,49.6,48.0,45.9,92,88,83,30.36,30.00,17,10,30,0.00
2013-1-4,52.0,49.9,48.6,49.3,46.7,44.2,93,89,83,30.44,30.36,12,9,22,0.00
2013-1-5,51.6,48.0,39.0,47.8,44.9,37.4,97,89,83,30.43,30.25,12,4,22,0.00
2013-1-6,50.5,46.3,38.7,47.3,43.1,37.0,97,89,79,30.43,30.17,8,4,15,0.00
2013-1-7,50.5,48.3,46.6,48.0,46.5,45.1,98,94,86,30.17,30.00,8,2,14,0.17
2013-1-8,53.8,48.2,43.9,50.7,45.8,40.5,98,91,84,30.14,29.95,12,5,20,0.09
2013-1-9,45.9,43.6,40.8,42.3,40.7,38.4,93,90,86,30.13,30.03,9,6,16,0.00
2013-1-10,43.2,40.3,34.5,42.6,39.2,33.6,99,96,92,30.02,29.94,7,3,12,0.04
2013-1-11,42.1,38.4,34.7,40.5,37.4,33.6,99,96,92,30.01,29.96,3,1,6,0.01
2013-1-12,39.6,33.6,29.1,36.9,32.1,28.2,99,94,88,30.12,29.95,3,0,6,0.01
2013-1-13,39.4,35.0,31.5,37.4,33.0,30.4,97,92,87,30.13,29.97,6,2,12,0.03
2013-1-14,39.7,37.5,35.4,37.6,34.3,32.2,96,88,79,29.97,29.71,7,3,15,0.07
2013-1-15,37.4,34.5,29.7,35.6,33.0,28.6,97,94,89,29.91,29.80,4,1,9,0.04
2013-1-16,33.1,30.3,23.0,30.0,27.4,21.6,97,89,80,29.98,29.84,0,0,1,0.01
2013-1-17,35.1,32.5,29.8,29.8,27.7,25.5,92,82,71,30.00,29.83,7,2,18,0.00
2013-1-18,35.2,33.3,30.9,32.4,29.0,26.2,96,84,74,29.83,29.58,9,5,23,0.00
2013-1-19,37.9,35.0,30.7,34.0,31.3,28.2,96,86,72,29.73,29.59,10,4,21,0.23
2013-1-20,36.9,35.9,34.3,30.9,28.9,26.2,83,75,68,29.71,29.54,10,6,21,0.04
2013-1-21,36.9,35.5,34.2,34.0,32.6,29.3,95,89,75,29.54,29.49,16,12,32,1.12
2013-1-22,37.0,35.5,33.3,34.5,33.5,30.0,95,92,88,29.85,29.53,13,6,26,0.26
2013-1-23,38.5,34.6,31.6,34.9,32.4,29.1,96,92,84,29.96,29.84,5,1,8,0.00
2013-1-24,37.4,34.9,32.7,35.2,32.0,28.9,98,89,75,30.07,29.95,6,2,10,0.01
2013-1-25,37.0,35.5,34.3,34.3,31.6,28.6,93,86,78,29.96,29.38,7,3,16,0.09
2013-1-26,44.6,40.3,34.5,41.2,36.6,33.1,96,87,77,29.54,28.97,12,7,21,0.22
2013-1-27,50.2,43.3,39.2,45.5,38.7,34.2,91,84,75,29.18,28.76,18,12,35,0.04
2013-1-28,48.4,42.9,39.4,43.2,37.7,34.0,91,82,73,29.33,28.88,17,12,35,0.14
2013-1-29,53.2,47.0,45.0,50.4,41.9,37.4,93,83,69,29.30,28.94,20,11,33,0.15
2013-1-30,46.0,44.1,39.6,39.4,37.8,35.6,93,78,69,29.60,29.10,20,14,38,0.04
2013-1-31,45.0,42.2,39.2,40.5,38.3,35.2,94,86,80,29.63,29.21,17,9,31,0.18
2013-2-1,43.0,40.5,36.7,39.9,36.3,31.8,93,85,76,29.79,29.34,13,7,23,0.02
2013-2-2,41.7,38.0,35.2,33.1,30.7,27.1,85,75,60,30.17,29.80,8,4,15,0.00
2013-2-3,49.3,45.3,36.7,45.7,40.5,31.8,90,83,76,30.01,29.43,19,12,30,0.00
2013-2-4,49.5,40.1,33.8,46.0,35.6,30.4,94,84,72,29.52,29.29,20,14,34,0.11
2013-2-5,43.9,39.1,33.4,39.0,34.4,30.2,94,83,76,29.54,29.03,17,11,36,0.01
2013-2-6,42.3,39.7,37.4,36.3,32.0,29.3,86,74,66,30.11,29.54,12,6,25,0.00
2013-2-7,41.4,38.2,35.1,36.0,32.5,29.3,87,80,70,30.11,29.99,7,3,12,0.00
2013-2-8,45.7,40.8,37.0,37.9,35.9,34.2,93,83,68,30.14,30.04,8,5,14,0.00
2013-2-9,41.9,39.2,37.0,39.4,36.6,34.7,95,90,83,30.11,29.82,4,2,7,0.00
2013-2-10,39.9,38.2,36.1,37.2,34.6,32.0,92,87,78,29.82,29.43,12,6,23,0.00
2013-2-11,41.4,38.5,36.7,35.8,32.1,28.0,91,78,68,29.96,29.51,10,6,19,0.01
2013-2-12,38.1,37.1,36.1,31.3,30.4,29.3,80,77,74,30.09,29.96,4,2,11,0.00
2013-2-13,44.4,36.5,32.4,40.8,32.2,26.3,91,85,70,30.09,29.51,15,6,33,0.46
2013-2-14,47.5,44.8,42.4,42.4,40.7,39.4,90,86,81,29.78,29.54,12,8,22,0.00
2013-2-15,49.4,44.2,39.3,41.6,39.5,36.4,91,84,72,30.10,29.78,10,6,20,0.00
2013-2-16,47.7,42.7,36.5,43.1,39.3,33.0,95,88,81,30.12,30.08,4,2,9,0.00
2013-2-17,50.1,42.4,30.7,42.1,38.2,28.9,96,85,69,30.12,30.06,5,1,9,0.00
2013-2-18,46.0,37.1,27.5,37.9,33.1,25.2,95,86,72,30.11,30.08,5,1,9,0.00
2013-2-19,43.0,39.3,30.7,39.6,36.7,26.7,98,91,76,30.15,30.10,5,1,9,0.00
2013-2-20,41.8,39.0,29.9,40.1,35.9,27.3,98,89,78,30.34,30.15,5,2,12,0.00
2013-2-21,38.5,36.4,33.7,30.4,28.8,25.9,83,74,68,30.34,30.30,5,2,12,0.00
2013-2-22,37.6,35.1,33.6,31.3,27.8,24.6,86,75,64,30.32,30.28,4,1,9,0.00
2013-2-23,40.6,36.8,32.4,35.6,30.0,26.1,93,77,67,30.39,30.25,6,2,13,0.01
2013-2-24,39.9,36.6,31.5,37.4,34.7,30.0,97,93,87,30.48,30.38,7,2,16,0.10
2013-2-25,43.3,36.9,30.6,40.1,35.2,29.3,99,93,87,30.64,30.48,5,2,10,0.01
2013-2-26,43.9,37.9,27.3,41.0,36.6,26.2,98,95,88,30.69,30.63,5,2,10,0.01
2013-2-27,48.4,35.6,27.9,39.9,33.5,27.0,99,92,72,30.69,30.58,6,2,10,0.01
2013-2-28,45.7,38.1,28.0,41.5,36.5,27.0,98,94,84,30.58,30.51,6,2,11,0.00
2013-3-1,46.8,41.2,32.4,39.2,35.7,29.8,95,81,64,30.55,30.42,5,2,10,0.00
2013-3-2,52.5,43.6,36.0,43.2,39.1,33.3,92,84,70,30.42,30.24,8,4,17,0.00
2013-3-3,47.8,44.0,40.8,42.5,40.3,35.8,95,87,71,30.26,30.09,3,1,7,0.00
2013-3-4,45.7,40.6,30.9,38.1,34.8,28.8,95,80,70,30.09,29.75,5,2,10,0.00
2013-3-5,46.9,36.2,27.1,37.4,32.7,25.5,98,88,65,29.75,29.65,5,1,8,0.00
2013-3-6,42.3,40.4,37.8,39.7,37.4,34.9,94,89,85,29.73,29.67,6,4,14,0.01
2013-3-7,43.0,41.7,40.6,41.7,40.2,37.4,98,94,86,29.67,29.58,12,7,24,0.12
2013-3-8,41.2,39.6,38.7,38.8,37.9,37.2,96,94,86,29.74,29.59,12,9,24,0.18
2013-3-9,39.9,38.6,37.8,37.9,34.7,27.5,97,86,65,29.92,29.74,11,8,25,0.10
2013-3-10,38.7,35.3,27.9,32.5,28.0,21.6,93,75,59,30.12,29.92,13,8,24,0.01
2013-3-11,36.7,32.5,27.9,29.1,23.8,19.0,93,71,53,30.13,30.09,13,8,26,0.00
2013-3-12,42.4,36.7,31.5,34.2,29.2,24.1,81,74,65,30.11,29.88,9,4,16,0.00
2013-3-13,42.4,37.4,34.3,32.5,29.5,26.8,83,73,57,29.98,29.85,6,3,17,0.00
2013-3-14,43.3,36.5,32.2,38.0,31.1,27.0,86,81,76,29.98,29.76,8,4,14,0.00
2013-3-15,47.8,41.3,32.9,41.2,37.1,30.2,94,85,72,29.59,29.36,9,4,20,0.09
2013-3-16,42.3,35.8,28.4,41.4,34.4,26.8,98,95,88,29.39,29.17,8,3,20,0.18
2013-3-17,46.0,39.1,29.5,40.5,36.7,27.9,98,91,72,29.28,29.13,12,4,22,0.18
2013-3-18,40.6,37.5,33.3,39.2,35.0,31.6,95,91,84,29.52,29.29,15,10,32,0.18
2013-3-19,36.9,35.8,34.9,35.4,34.2,32.5,96,94,89,29.69,29.52,15,11,28,0.67
2013-3-20,40.5,35.8,31.1,34.7,32.3,28.8,93,87,73,30.08,29.69,10,5,21,0.05
2013-3-21,39.9,35.0,27.9,33.3,30.3,26.6,97,83,69,30.11,30.06,11,5,22,0.02
2013-3-22,36.9,35.6,34.2,32.9,30.5,28.3,91,82,74,30.08,30.00,16,12,35,0.04
2013-3-23,35.2,34.9,34.2,30.9,28.7,25.5,86,78,69,30.22,30.08,16,12,32,0.03
2013-3-24,36.3,35.5,34.5,28.8,26.4,24.1,76,69,64,30.32,30.22,14,11,27,0.00
2013-3-25,37.2,35.9,34.9,29.1,27.2,23.9,79,70,62,30.32,30.27,12,8,23,0.00
2013-3-26,39.7,36.0,33.4,32.0,28.0,22.6,86,73,59,30.27,30.17,11,6,26,0.01
2013-3-27,40.8,36.3,30.9,33.3,29.7,26.1,93,77,63,30.17,30.10,9,6,18,0.04
2013-3-28,41.4,37.2,33.4,32.7,29.9,26.4,94,75,58,30.11,30.05,8,4,15,0.02
2013-3-29,42.4,37.1,28.0,34.3,29.3,23.5,90,74,57,30.05,29.95,8,3,16,0.00
2013-3-30,42.1,34.4,23.5,34.7,28.9,21.6,93,81,55,30.03,29.95,6,2,12,0.01
2013-3-31,43.5,34.7,22.8,30.4,25.5,21.0,95,71,45,30.03,30.00,8,2,15,0.00
2013-4-1,42.3,35.6,24.4,29.1,26.1,20.7,91,69,54,30.10,30.02,8,3,17,0.00
2013-4-2,44.2,39.0,29.8,37.4,32.3,24.1,87,77,65,30.25,30.10,8,4,15,0.00
2013-4-3,45.0,37.2,24.3,36.9,30.7,22.6,96,78,57,30.31,30.25,6,2,12,0.00
2013-4-4,45.1,41.1,36.3,38.8,36.1,32.7,93,83,70,30.29,30.23,9,5,16,0.03
2013-4-5,43.3,38.7,27.0,37.8,31.3,24.3,93,75,63,30.26,30.21,9,4,15,0.01
2013-4-6,49.8,39.2,26.2,37.8,31.7,23.9,94,76,49,30.27,30.17,10,5,16,0.00
2013-4-7,39.6,37.7,35.8,37.2,34.6,31.5,95,89,75,30.19,30.01,7,3,14,0.03
2013-4-8,43.2,38.7,36.0,34.7,31.1,26.4,92,75,57,30.01,29.77,10,6,18,0.00
2013-4-9,44.1,39.6,35.4,36.5,31.5,25.2,90,73,60,29.76,29.69,9,5,17,0.00
2013-4-10,42.6,40.0,37.0,38.8,36.6,34.2,92,87,83,29.72,29.61,8,4,14,0.00
2013-4-11,37.0,34.9,33.4,34.3,32.9,31.3,94,93,91,29.61,29.57,1,1,3,0.00
2013-4-12,45.1,41.1,37.7,39.0,36.9,33.0,90,85,78,29.65,29.40,6,4,14,0.00
2013-4-13,57.2,45.7,37.0,46.9,40.1,35.1,96,82,51,29.75,29.48,9,3,18,0.00
2013-4-14,59.7,56.3,51.3,52.7,48.5,45.3,87,75,61,29.50,29.39,19,13,38,0.00
2013-4-15,54.9,51.8,48.9,49.8,45.6,42.1,94,79,67,29.75,29.47,18,10,36,0.26
2013-4-16,55.6,51.0,46.6,46.0,42.1,35.8,91,72,53,29.79,29.38,24,13,44,0.01
2013-4-17,58.1,49.4,41.7,52.2,43.6,36.1,94,80,73,29.84,29.11,18,8,32,0.16
2013-4-18,52.2,48.6,44.2,45.3,42.0,38.5,87,78,64,29.88,29.08,18,12,34,0.04
2013-4-19,53.4,47.0,40.5,39.4,36.5,32.0,84,68,49,30.41,29.89,8,3,13,0.00
2013-4-20,57.0,49.5,41.9,42.6,38.2,33.1,83,66,51,30.41,30.13,15,8,27,0.00
2013-4-21,53.2,48.8,43.3,43.9,41.0,37.9,88,75,60,30.13,29.82,13,8,25,0.01
2013-4-22,54.9,48.1,41.4,47.5,41.6,37.0,85,78,67,29.83,29.55,20,11,37,0.00
2013-4-23,54.1,49.4,46.0,44.2,42.0,39.9,89,76,65,30.03,29.69,14,9,27,0.00
2013-4-24,53.4,48.8,44.4,49.5,42.5,36.5,97,80,59,30.19,29.86,12,5,22,0.18
2013-4-25,51.2,45.5,42.9,42.0,38.7,35.6,86,77,69,30.19,29.99,11,6,18,0.00
2013-4-26,50.4,43.4,39.4,40.3,37.3,35.4,90,79,62,30.01,29.83,13,6,24,0.03
2013-4-27,52.0,45.5,40.5,37.6,33.9,27.0,87,65,39,30.12,29.94,9,4,17,0.00
2013-4-28,52.7,46.4,41.2,43.7,39.2,34.2,85,76,67,29.94,29.57,15,11,27,0.00
2013-4-29,53.1,47.1,41.5,40.1,38.2,33.3,84,72,47,30.07,29.57,16,12,29,0.00
2013-4-30,54.7,47.1,37.6,40.1,34.7,26.1,90,64,37,30.30,30.07,8,4,14,0.00
2013-5-1,54.3,47.9,43.5,45.0,38.5,31.8,86,70,55,30.27,30.08,13,7,22,0.00
2013-5-2,56.5,48.7,39.0,42.6,38.7,34.5,85,69,51,30.27,29.98,11,4,22,0.00
2013-5-3,53.4,51.0,44.2,50.4,46.1,39.7,94,83,72,29.98,29.64,15,9,29,0.42
2013-5-4,52.7,47.2,40.8,43.5,39.4,36.0,85,75,57,29.88,29.67,16,10,27,0.00
2013-5-5,61.3,55.3,49.8,53.6,48.2,43.0,84,77,67,30.02,29.87,12,7,22,0.00
2013-5-6,61.7,54.7,46.2,52.2,48.7,43.7,94,80,70,30.04,29.99,11,5,24,0.00
2013-5-7,66.2,53.5,39.0,50.9,44.3,36.5,96,73,48,30.06,29.87,8,3,19,0.00
2013-5-8,61.9,51.0,46.2,53.1,46.2,40.3,97,84,68,29.87,29.49,11,6,21,0.00
2013-5-9,55.9,48.9,39.4,44.8,41.7,36.5,96,77,51,29.53,29.34,9,4,24,0.01
2013-5-10,56.7,49.1,45.0,48.0,44.8,40.6,96,85,66,29.62,29.34,11,6,19,0.16
2013-5-11,52.0,47.7,43.0,46.9,42.9,38.3,88,83,78,29.70,29.46,13,8,25,0.01
2013-5-12,55.2,49.2,44.1,48.6,43.9,39.0,91,82,70,29.76,29.54,14,8,27,0.02
2013-5-13,49.8,44.4,36.7,42.1,38.5,34.3,94,80,70,29.59,29.40,16,11,36,0.08
2013-5-14,53.8,46.6,41.9,43.7,40.0,37.4,88,78,56,29.41,29.34,15,9,30,0.13
2013-5-15,49.5,46.1,40.5,45.1,42.2,36.7,91,86,82,29.41,29.28,10,5,20,0.10
2013-5-16,45.0,43.1,41.7,40.8,39.5,38.7,90,87,85,29.40,29.37,7,5,14,0.00
2013-5-17,57.4,50.8,43.9,45.1,43.2,39.0,96,76,54,29.85,29.70,6,3,11,0.00
2013-5-18,52.9,49.4,47.7,50.2,47.8,45.1,98,94,85,29.83,29.71,13,5,24,0.27
2013-5-19,54.3,49.5,46.6,53.1,48.9,46.4,99,98,94,29.96,29.80,7,2,14,0.02
2013-5-20,68.2,56.8,51.3,61.7,54.9,50.2,99,94,77,30.02,29.89,7,3,11,0.25
2013-5-21,60.3,52.0,44.4,50.5,46.7,43.5,99,83,63,30.07,30.01,6,2,10,0.00
2013-5-22,57.9,50.5,43.2,46.6,41.0,34.2,92,71,44,30.07,29.97,10,5,23,0.01
2013-5-23,50.0,45.5,42.1,38.7,35.6,32.9,77,68,57,29.99,29.87,9,6,22,0.00
2013-5-24,52.0,47.3,36.9,46.2,42.0,35.1,93,82,73,30.20,29.88,13,7,22,0.02
2013-5-25,61.9,51.0,34.5,44.6,40.6,33.3,98,70,47,30.20,30.08,9,5,17,0.00
2013-5-26,60.3,53.9,45.1,50.4,45.8,38.5,83,74,61,30.10,29.75,10,5,20,0.00
2013-5-27,55.0,51.7,48.2,45.9,44.2,38.8,83,76,64,29.75,29.46,13,8,29,0.00
2013-5-28,56.5,50.9,46.6,48.6,46.1,44.4,95,84,68,29.79,29.53,8,4,15,0.00
2013-5-29,57.7,52.6,45.9,52.7,48.2,43.7,96,85,76,29.89,29.79,7,2,12,0.01
2013-5-30,59.7,54.5,44.1,52.5,48.2,41.9,94,80,69,30.07,29.87,5,2,10,0.01
2013-5-31,66.4,54.2,43.9,55.0,48.9,42.4,99,83,58,30.16,30.05,13,5,20,0.01
2013-6-1,59.2,52.3,46.2,49.6,45.3,42.1,96,78,58,30.27,30.16,11,6,18,0.02
2013-6-2,63.9,54.2,45.1,47.8,42.9,37.8,88,68,45,30.42,30.27,8,5,14,0.00
2013-6-3,68.7,57.8,45.7,54.5,49.9,41.9,90,75,56,30.48,30.42,7,3,12,0.00
2013-6-4,63.3,55.9,49.3,52.7,50.0,46.6,97,81,63,30.50,30.32,6,3,11,0.00
2013-6-5,59.4,52.3,48.4,52.5,49.0,46.2,99,89,75,30.32,30.17,7,3,13,0.00
2013-6-6,63.9,55.6,49.6,53.6,49.7,46.2,93,81,67,30.25,30.18,6,2,11,0.00
2013-6-7,58.5,52.3,45.0,52.7,48.8,42.3,98,88,70,30.34,30.25,7,3,14,0.00
2013-6-8,66.2,53.6,39.4,52.7,47.5,37.9,99,81,57,30.32,30.13,8,3,14,0.00
2013-6-9,60.8,54.0,48.6,51.3,49.0,46.8,95,84,71,30.14,30.01,9,5,17,0.00
2013-6-10,59.9,52.9,43.3,49.8,47.6,40.6,91,82,68,30.03,29.92,7,4,13,0.00
2013-6-11,63.9,52.8,39.9,54.3,48.5,39.0,99,86,60,29.92,29.71,6,2,10,0.01
2013-6-12,64.4,58.1,51.8,56.8,52.9,50.4,97,84,68,29.70,29.56,10,4,19,0.10
2013-6-13,63.0,56.0,49.3,50.7,48.0,45.1,92,75,57,29.75,29.54,12,8,22,0.00
2013-6-14,66.4,57.0,48.6,52.9,47.8,45.1,91,72,52,29.80,29.59,10,6,18,0.01
2013-6-15,60.1,53.9,51.1,51.4,46.9,41.9,91,78,54,29.59,29.43,13,6,23,0.01
2013-6-16,65.1,56.6,51.1,52.0,49.7,45.3,93,79,57,29.98,29.54,8,4,15,0.01
2013-6-17,63.5,56.4,48.7,55.6,52.0,47.3,98,86,74,30.06,29.98,6,2,11,0.00
2013-6-18,69.6,59.4,48.4,58.1,53.2,46.8,97,81,57,30.03,29.90,5,2,9,0.00
2013-6-19,65.7,58.8,53.6,53.4,49.9,45.7,89,73,53,30.02,29.94,11,6,19,0.00
2013-6-20,72.9,61.5,50.0,57.9,52.8,46.2,92,74,47,30.01,29.78,9,4,15,0.01
2013-6-21,65.4,58.6,55.0,59.0,53.7,47.8,95,84,63,29.79,29.61,6,2,13,0.02
2013-6-22,63.3,56.5,51.3,54.3,51.0,48.9,92,82,63,29.62,29.29,12,5,20,0.16
2013-6-23,60.6,55.5,51.6,55.0,51.0,46.4,93,85,73,29.89,29.34,10,6,21,0.34
2013-6-24,61.2,55.1,50.0,50.4,46.5,43.9,89,73,55,30.23,29.89,9,5,17,0.02
2013-6-25,63.0,55.9,48.6,51.1,48.0,41.5,94,76,52,30.36,30.23,8,4,16,0.00
2013-6-26,64.8,56.8,49.5,50.9,48.7,44.8,91,75,50,30.42,30.35,8,4,14,0.00
2013-6-27,60.1,54.5,47.8,55.8,50.8,44.6,96,88,79,30.40,30.10,9,5,17,0.01
2013-6-28,63.1,57.5,53.1,57.0,53.6,45.9,96,87,72,30.10,29.84,14,8,28,0.23
2013-6-29,60.4,55.7,51.4,54.9,49.6,45.3,91,80,66,30.12,30.02,11,7,22,0.00
2013-6-30,66.6,59.4,53.8,56.5,52.6,47.5,92,78,67,30.08,29.82,15,9,32,0.00
2013-7-1,62.4,55.8,49.8,49.3,47.0,44.1,89,73,55,29.88,29.82,12,8,21,0.00
2013-7-2,58.6,54.3,48.0,54.1,50.2,42.4,95,86,77,29.87,29.44,8,3,16,0.18
2013-7-3,64.6,59.3,55.6,56.5,54.2,52.0,96,84,70,29.79,29.44,10,5,17,0.01
2013-7-4,64.2,60.2,56.1,61.0,53.8,48.2,94,80,67,30.13,29.71,14,8,25,0.19
2013-7-5,66.4,59.4,52.3,55.2,52.2,48.7,92,77,65,30.34,30.13,12,6,19,0.00
2013-7-6,74.8,62.6,47.7,57.7,53.1,46.0,97,73,48,30.39,30.28,10,4,17,0.00
2013-7-7,69.3,62.4,55.2,59.2,56.8,54.1,97,82,61,30.59,30.39,8,5,15,0.00
2013-7-8,76.5,59.4,53.8,63.1,56.3,53.4,99,90,60,30.62,30.45,6,2,10,0.01
2013-7-9,79.9,66.6,55.6,63.5,59.3,53.8,97,79,56,30.45,30.31,8,5,17,0.00
2013-7-10,63.1,57.7,54.1,55.4,53.9,51.3,96,87,75,30.41,30.34,7,4,13,0.00
2013-7-11,70.0,60.3,51.6,61.3,55.8,50.0,97,85,71,30.36,30.23,5,2,9,0.00
2013-7-12,80.8,68.2,52.3,64.9,59.2,51.3,99,75,50,30.25,30.16,9,5,15,0.00
2013-7-13,69.6,61.8,57.0,61.3,57.8,54.9,94,87,74,30.30,30.20,7,5,15,0.00
2013-7-14,70.3,61.8,55.9,56.1,54.4,51.6,97,78,59,30.29,30.14,13,6,21,0.00
2013-7-15,68.5,62.3,55.8,57.6,54.8,50.5,86,77,66,30.17,30.13,14,8,24,0.00
2013-7-16,72.9,66.1,61.0,61.7,58.6,55.9,88,77,65,30.22,30.15,9,6,16,0.00
2013-7-17,73.0,66.5,57.7,58.5,56.6,53.6,87,71,56,30.30,30.22,9,5,18,0.00
2013-7-18,81.7,69.9,61.5,64.9,60.8,56.5,89,74,54,30.35,30.29,9,6,16,0.00
2013-7-19,71.8,63.8,52.5,59.9,57.2,51.4,99,80,62,30.38,30.33,8,3,15,0.00
2013-7-20,66.9,61.0,54.5,59.2,57.0,52.5,98,87,75,30.36,30.27,8,3,15,0.01
2013-7-21,66.4,59.9,54.7,58.5,56.1,52.3,97,88,74,30.30,30.13,9,3,16,0.00
2013-7-22,63.1,60.0,57.7,59.7,58.1,56.5,97,93,88,30.14,29.98,6,3,12,0.00
2013-7-23,72.5,62.1,56.1,66.2,60.4,55.2,99,95,78,29.99,29.84,5,2,11,0.56
2013-7-24,69.8,64.6,60.1,64.2,61.9,58.6,99,91,77,29.89,29.85,6,2,12,0.25
2013-7-25,67.5,60.6,55.6,63.3,59.8,54.7,100,97,86,29.87,29.78,5,2,10,0.37
2013-7-26,72.7,64.3,55.6,62.8,58.8,54.7,99,83,64,29.82,29.80,6,2,10,0.01
2013-7-27,69.1,62.9,55.9,60.8,58.0,53.1,92,84,68,29.82,29.65,6,3,12,0.00
2013-7-28,63.5,59.8,55.2,60.8,58.0,53.6,98,94,84,29.66,29.48,7,3,15,1.36
2013-7-29,66.9,59.9,51.4,63.7,57.6,50.5,99,92,79,29.71,29.61,8,2,15,0.16
2013-7-30,68.4,60.9,55.2,57.2,54.8,51.8,93,81,59,29.77,29.71,10,5,20,0.02
2013-7-31,67.5,60.4,55.0,57.4,53.8,50.2,96,80,55,29.86,29.76,8,4,15,0.06
2013-8-1,74.7,64.9,57.9,66.2,61.9,57.0,99,91,71,29.76,29.59,7,2,14,0.22
2013-8-2,73.8,67.0,60.1,63.5,57.6,51.6,98,74,48,29.60,29.52,12,6,27,0.02
2013-8-3,67.6,61.9,57.4,55.2,52.9,50.0,89,73,56,29.83,29.55,14,8,28,0.00
2013-8-4,69.4,62.0,55.4,57.0,53.6,50.0,90,75,60,29.87,29.83,9,4,19,0.00
2013-8-5,62.1,58.8,56.7,58.1,56.5,52.9,97,92,82,29.86,29.73,9,2,16,0.07
2013-8-6,67.3,58.9,52.9,53.2,50.5,48.4,90,75,53,29.97,29.81,9,5,16,0.00
2013-8-7,68.7,59.9,48.0,56.8,51.9,46.0,96,76,47,30.05,29.95,4,1,8,0.00
2013-8-8,69.1,59.0,49.5,59.0,54.8,48.0,99,87,64,30.05,29.92,5,1,8,0.01
2013-8-9,66.4,60.9,53.2,59.0,54.9,51.1,95,81,68,30.08,29.86,11,6,19,0.00
2013-8-10,62.8,58.3,53.8,53.6,51.5,49.6,88,78,68,30.09,29.96,9,5,15,0.00
2013-8-11,63.9,57.8,52.9,53.6,51.5,49.8,90,80,66,29.96,29.82,12,7,21,0.02
2013-8-12,66.0,57.7,53.8,54.7,51.9,49.3,92,81,60,29.99,29.81,11,6,18,0.12
2013-8-13,63.1,57.7,52.2,53.4,50.3,47.3,90,77,57,30.12,29.99,9,6,16,0.00
2013-8-14,70.7,62.1,50.5,59.4,54.9,48.0,94,78,60,30.12,29.91,7,3,14,0.00
2013-8-15,70.2,63.7,59.7,63.5,60.7,58.6,96,90,77,29.91,29.72,9,4,16,0.35
2013-8-16,68.2,61.2,55.6,61.2,55.8,51.4,96,83,65,29.85,29.70,10,6,18,0.00
2013-8-17,70.2,61.9,54.0,61.3,55.8,49.6,91,81,67,29.83,29.37,15,7,28,0.14
2013-8-18,63.3,58.0,53.8,52.9,50.9,49.1,85,77,67,29.78,29.42,15,9,27,0.00
2013-8-19,63.9,58.3,52.5,54.9,51.5,48.4,87,78,63,30.15,29.78,12,7,23,0.00
2013-8-20,65.8,59.0,52.9,57.0,53.9,49.5,94,84,71,30.23,30.13,8,3,16,0.07
2013-8-21,70.3,63.2,57.9,61.5,58.6,55.8,97,85,70,30.13,30.01,9,3,16,0.05
2013-8-22,62.4,57.7,54.7,59.2,57.0,54.1,99,97,87,30.11,30.01,6,3,11,0.00
2013-8-23,72.5,60.4,48.6,64.0,57.9,47.8,100,92,73,30.01,29.85,6,1,13,0.05
2013-8-24,59.5,58.0,56.5,58.6,56.9,55.4,98,96,94,29.95,29.87,4,1,8,0.06
2013-8-25,64.0,58.8,53.2,61.2,57.0,52.7,98,94,89,30.15,29.95,5,2,8,0.01
2013-8-26,69.4,59.0,51.6,62.4,56.7,51.1,100,93,76,30.17,30.07,6,2,12,0.01
2013-8-27,68.7,60.1,54.0,59.9,56.2,51.6,95,87,73,30.19,30.05,9,5,15,0.00
2013-8-28,65.5,59.0,53.4,58.1,53.7,47.1,95,83,75,30.22,30.06,8,4,14,0.00
2013-8-29,65.8,59.3,52.9,58.5,54.9,46.9,91,85,75,30.06,29.98,9,5,17,0.00
2013-8-30,68.4,60.7,54.3,61.0,55.2,44.4,95,82,67,30.05,29.80,16,8,27,0.01
2013-8-31,54.1,52.9,50.5,46.8,45.2,43.3,78,75,74,30.09,30.05,11,8,18,0.00
2013-9-1,59.3,57.2,55.0,55.4,51.5,48.8,88,81,74,30.23,30.06,15,12,31,0.00
2013-9-2,66.4,62.7,59.0,59.9,58.1,55.8,90,85,78,30.22,30.02,15,11,31,0.00
2013-9-3,70.3,63.0,56.8,60.4,57.6,52.3,94,83,66,30.23,30.16,9,6,17,0.00
2013-9-4,72.0,61.7,50.0,55.0,51.9,46.0,95,73,42,30.17,29.92,10,4,18,0.00
2013-9-5,62.8,57.5,51.6,54.0,50.2,45.1,91,77,53,29.89,29.84,8,4,15,0.00
2013-9-6,56.7,52.9,48.9,49.8,48.3,46.4,95,85,76,29.91,29.86,10,6,21,0.48
2013-9-7,62.2,55.2,48.0,54.3,50.0,43.7,97,83,64,29.94,29.72,15,6,30,0.28
2013-9-8,61.0,52.2,41.7,52.0,46.3,39.0,95,81,66,29.99,29.91,4,2,10,0.01
2013-9-9,59.5,52.3,47.7,52.9,49.5,45.1,96,90,73,30.14,29.93,5,1,16,0.10
2013-9-10,63.1,56.6,52.2,52.2,49.6,46.2,91,78,65,30.22,30.13,7,3,15,0.01
2013-9-11,60.8,56.1,52.9,56.1,53.2,50.4,94,90,84,30.20,30.06,7,4,13,0.04
2013-9-12,67.6,60.1,55.2,59.9,56.3,52.5,96,88,71,30.07,29.85,8,4,16,0.07
2013-9-13,58.1,52.3,48.4,55.6,48.1,42.4,98,86,66,30.09,29.92,9,2,16,0.13
2013-9-14,59.5,53.6,49.6,50.0,46.8,42.3,93,78,54,30.04,29.91,7,4,14,0.00
2013-9-15,61.2,53.5,46.8,56.8,47.2,40.6,92,80,65,29.90,29.15,21,11,36,0.33
2013-9-16,56.7,49.9,44.1,47.8,43.3,39.6,86,78,69,29.29,29.22,16,11,29,0.00
2013-9-17,57.4,52.0,49.1,47.7,45.2,43.3,84,78,68,29.36,29.24,15,10,29,0.00
2013-9-18,57.6,51.4,46.8,47.8,45.5,43.9,91,81,66,29.70,29.36,13,8,26,0.00
2013-9-19,54.9,49.8,47.1,53.1,47.6,44.2,97,92,86,29.75,29.51,9,3,17,0.25
2013-9-20,60.3,54.0,47.8,51.4,48.6,45.1,95,82,69,30.01,29.74,9,6,18,0.00
2013-9-21,63.3,58.5,52.5,59.0,53.4,47.8,88,83,77,30.07,29.99,10,6,18,0.00
2013-9-22,66.4,62.1,57.9,58.6,56.9,55.0,91,83,71,30.25,30.06,14,7,26,0.00
2013-9-23,63.5,58.4,53.2,59.2,55.5,51.4,97,90,84,30.25,30.10,7,2,12,0.00
2013-9-24,60.3,56.5,54.0,58.3,55.5,52.9,98,97,91,30.10,29.94,5,2,10,0.00
2013-9-25,55.2,53.3,51.1,54.9,51.3,45.9,99,93,80,30.03,29.89,8,4,16,0.03
2013-9-26,60.4,52.6,43.9,51.3,48.3,42.3,98,86,65,30.11,30.03,7,2,12,0.00
2013-9-27,59.7,54.9,51.3,54.5,52.2,49.3,97,91,81,30.05,29.92,1,0,3,0.00
2013-9-28,63.7,54.8,45.3,56.1,51.5,44.6,99,89,73,29.92,29.84,6,1,10,0.00
2013-9-29,63.0,53.8,45.1,53.1,49.2,43.3,98,85,66,29.94,29.90,9,3,17,0.00
2013-9-30,59.5,55.0,52.3,52.5,50.5,48.2,94,85,73,29.92,29.84,9,5,18,0.00
2013-10-1,59.7,53.9,49.1,50.9,47.9,45.5,91,80,65,29.92,29.85,9,5,17,0.00
2013-10-2,59.5,55.7,52.5,55.0,52.0,48.2,94,87,81,29.86,29.77,8,4,19,0.04
2013-10-3,65.5,58.0,55.2,62.1,56.4,54.1,97,94,84,29.78,29.52,5,2,10,0.19
2013-10-4,63.3,58.2,54.5,61.2,56.7,52.7,99,95,85,29.79,29.51,9,2,16,0.03
2013-10-5,59.7,56.4,54.0,53.8,52.2,50.2,93,86,74,30.07,29.78,8,5,15,0.00
2013-10-6,62.6,60.1,57.6,58.3,55.6,53.1,92,85,75,30.07,30.00,10,6,18,0.00
2013-10-7,66.0,62.8,59.5,59.7,57.5,56.1,92,83,73,30.04,29.96,12,7,24,0.05
2013-10-8,60.6,57.6,53.2,58.6,53.5,47.7,94,86,79,30.11,29.95,14,9,25,0.02
2013-10-9,53.4,50.8,46.2,48.7,43.0,36.5,88,75,55,30.11,29.87,15,10,30,0.01
2013-10-10,52.3,48.1,45.3,41.4,38.7,35.6,76,70,62,30.41,30.11,9,6,22,0.00
2013-10-11,48.7,48.5,48.4,42.1,41.3,40.5,78,76,75,30.41,30.40,10,8,20,0.00
2013-10-12,55.5,52.3,50.7,50.2,47.3,43.9,90,83,77,30.46,30.27,7,6,16,0.00
2013-10-13,55.8,52.0,49.4,51.8,49.2,46.6,97,90,81,30.26,30.02,11,7,23,0.06
2013-10-14,55.8,52.8,51.2,51.5,49.2,47.3,94,88,80,30.02,29.91,7,5,17,0.00
2013-10-15,53.1,50.3,39.5,50.5,47.8,38.5,97,91,81,29.99,29.88,7,4,15,0.03
2013-10-16,53.2,48.2,37.8,50.4,46.6,36.8,99,94,85,29.97,29.56,9,4,18,0.78
2013-10-17,52.3,49.0,47.7,50.0,47.8,46.2,97,96,89,29.97,29.59,7,2,15,0.26
2013-10-18,54.1,50.7,47.5,53.2,48.9,45.1,97,93,87,30.00,29.71,8,4,15,0.21
2013-10-19,57.6,53.9,50.2,56.7,52.6,48.9,99,95,92,29.71,29.45,7,2,12,0.45
2013-10-20,59.9,54.1,47.7,55.2,51.5,46.4,98,91,80,29.47,29.41,6,1,11,0.03
2013-10-21,57.4,53.9,50.7,53.8,51.3,48.4,99,91,82,29.51,29.26,6,2,13,0.09
2013-10-22,60.8,58.2,55.0,58.6,55.5,52.7,100,91,82,29.26,29.10,8,3,18,0.34
2013-10-23,57.7,54.1,47.8,54.9,49.3,42.1,94,84,73,29.53,28.98,16,8,37,0.01
2013-10-24,55.2,49.5,43.0,48.0,44.7,41.0,95,84,73,29.90,29.53,13,6,25,0.00
2013-10-25,61.5,54.1,46.2,55.9,50.9,43.5,96,89,76,29.85,29.29,9,5,18,0.07
2013-10-26,56.7,53.6,46.9,53.1,48.6,42.4,90,83,69,29.42,29.13,13,6,23,0.01
2013-10-27,56.7,51.1,45.5,48.2,46.0,41.7,93,83,70,29.17,28.82,16,8,34,0.25
2013-10-28,53.8,50.0,47.5,47.7,45.3,43.2,89,84,77,29.29,28.87,14,9,27,0.00
2013-10-29,52.2,48.4,45.7,45.0,42.7,40.8,88,80,70,29.84,29.28,14,10,25,0.00
2013-10-30,54.9,48.8,42.3,50.7,44.2,39.6,92,84,76,29.89,29.57,14,8,25,0.04
2013-10-31,55.8,48.6,43.9,46.2,42.8,40.5,92,80,68,29.79,29.58,15,8,29,0.24
2013-11-1,51.8,47.2,43.3,43.3,41.2,39.6,88,80,71,29.59,29.53,15,9,26,0.00
2013-11-2,48.2,42.2,32.7,45.3,39.4,30.9,97,90,82,29.53,28.82,15,4,29,0.21
2013-11-3,49.6,46.1,41.7,41.5,39.5,37.2,88,78,63,29.24,28.87,20,13,34,0.00
2013-11-4,49.3,43.4,34.2,41.4,37.9,30.7,92,81,65,29.34,29.17,8,5,16,0.00
2013-11-5,44.2,38.4,28.4,41.0,35.5,26.4,96,89,80,29.31,29.15,12,4,23,0.01
2013-11-6,46.9,43.7,40.3,42.3,39.6,36.7,89,85,81,29.34,29.20,10,6,19,0.00
2013-11-7,49.6,45.3,40.5,43.3,39.1,36.3,90,79,66,29.45,29.34,17,10,31,0.16
2013-11-8,49.6,44.4,39.9,43.3,39.9,36.7,90,84,74,29.51,29.42,12,7,24,0.00
2013-11-9,43.9,40.4,36.9,39.6,36.8,34.0,91,87,81,29.61,29.47,9,6,16,0.00
2013-11-10,47.5,40.9,32.0,39.0,35.9,29.7,95,83,71,30.11,29.61,8,3,14,0.00
2013-11-12,49.6,46.9,45.7,42.3,41.1,39.9,84,80,74,30.33,30.09,14,10,28,0.01
2013-11-13,46.2,45.7,44.4,41.7,41.1,39.9,85,84,83,30.34,30.33,10,8,18,0.00
2013-11-14,48.5,46.3,43.9,44.1,37.7,34.3,86,72,62,30.44,29.76,16,8,29,0.00
2013-11-15,51.8,48.3,40.6,48.0,44.1,35.6,91,85,81,30.44,30.29,16,8,26,0.00
2013-11-16,53.1,51.4,47.1,49.5,46.9,43.3,92,85,81,30.32,30.16,16,11,27,0.00
2013-11-17,47.7,42.9,35.8,44.1,40.0,33.4,97,90,77,30.34,29.89,5,1,9,0.04
2013-11-18,46.8,42.8,37.8,44.1,39.1,33.4,97,87,67,29.90,29.73,10,6,21,0.01
2013-11-19,41.4,38.3,35.8,38.5,31.1,27.3,89,76,62,29.98,29.55,14,7,29,0.02
2013-11-20,46.0,43.0,41.0,42.1,37.2,32.9,92,80,70,29.77,29.34,16,9,31,0.10
2013-11-21,42.1,40.2,34.7,35.6,33.3,30.0,85,76,73,30.13,29.76,11,4,25,0.00
2013-11-22,40.8,37.3,30.7,35.2,32.4,27.5,93,83,75,30.25,30.13,8,4,14,0.00
2013-11-23,44.4,40.7,36.3,40.6,37.8,33.3,95,89,85,30.41,30.24,7,4,13,0.00
2013-11-24,45.9,41.5,37.0,40.5,36.6,32.0,96,83,69,30.66,30.40,5,2,10,0.02
2013-11-25,41.9,37.0,30.7,39.2,34.8,28.4,96,92,85,30.69,30.66,6,3,12,0.01
2013-11-26,50.9,46.2,39.2,48.0,44.3,37.6,96,93,89,30.66,30.45,11,8,19,0.09
2013-11-27,52.7,50.2,46.9,48.3,47.2,45.5,96,89,84,30.49,30.42,13,9,23,0.00
2013-11-28,48.2,43.1,36.5,46.7,41.2,35.1,97,93,88,30.59,30.30,7,2,13,0.01
2013-11-29,48.6,45.7,43.9,45.9,39.9,35.2,94,80,68,30.30,30.03,15,10,30,0.15
2013-11-30,47.7,44.5,39.9,44.6,39.5,34.5,90,83,70,30.36,30.22,14,7,23,0.00
2013-12-1,48.7,44.2,35.8,45.7,42.1,34.5,98,92,89,30.56,30.31,11,4,19,0.00
2013-12-2,47.5,44.3,36.5,44.8,40.9,35.4,97,88,78,30.56,30.30,12,5,21,0.00
2013-12-3,50.5,47.8,41.4,46.6,44.2,38.7,96,87,82,30.30,30.07,11,7,19,0.22
2013-12-4,45.1,42.6,38.1,40.6,37.8,34.5,89,83,78,30.23,30.02,15,9,30,0.00
2013-12-5,48.9,41.3,36.0,45.0,34.9,24.4,91,78,60,30.08,29.32,28,14,56,0.53
2013-12-6,38.5,36.3,33.6,30.7,27.4,23.9,88,71,59,30.30,30.08,10,4,20,0.00
2013-12-7,49.3,41.3,33.8,45.7,38.9,30.4,97,91,86,30.21,29.88,16,5,30,0.01
2013-12-8,54.1,51.6,48.9,50.9,48.2,44.6,94,88,83,29.91,29.80,16,11,29,0.05
2013-12-9,54.0,52.1,49.3,51.1,47.8,42.8,94,85,75,30.16,29.90,13,8,26,0.00
2013-12-10,53.6,51.6,49.6,48.7,45.7,42.4,85,80,75,30.18,30.11,12,7,22,0.00
2013-12-11,53.8,48.3,37.6,49.1,43.8,32.5,92,84,71,30.21,29.99,9,3,16,0.00
2013-12-12,52.2,44.6,42.3,40.6,37.8,35.6,83,77,64,29.99,29.92,6,1,10,0.00
2013-12-13,58.0,52.8,44.1,52.2,47.7,37.4,92,83,72,29.90,29.66,11,6,22,0.02
2013-12-14,53.8,48.6,39.0,49.1,43.0,33.6,87,81,74,29.89,29.40,20,11,39,0.00
2013-12-15,52.0,45.9,42.1,47.1,40.9,35.1,96,83,69,29.82,29.49,15,7,29,0.25
2013-12-16,50.2,44.3,40.8,46.8,38.5,35.4,89,80,74,29.92,29.48,16,9,29,0.06
2013-12-17,45.3,42.3,39.9,38.1,36.1,33.6,84,79,73,30.04,29.76,13,8,24,0.00
2013-12-18,52.3,46.5,41.5,48.0,41.6,34.0,91,83,66,29.76,28.73,20,9,36,0.10
2013-12-19,46.8,40.5,36.9,36.1,33.4,31.1,90,76,65,29.45,28.82,18,11,36,0.06
2013-12-20,53.4,45.3,39.2,48.6,40.1,33.6,92,82,75,29.70,29.32,17,10,30,0.29
2013-12-21,52.2,45.7,38.7,46.9,40.0,36.3,93,81,73,29.47,29.23,18,9,32,0.51
2013-12-22,42.3,40.2,37.4,37.0,35.0,31.8,90,82,75,29.49,29.27,18,11,32,0.07
2013-12-23,50.7,42.5,35.6,45.7,37.9,31.1,93,84,76,29.48,28.29,13,8,28,0.21
2013-12-24,49.6,42.6,37.4,45.7,34.4,29.5,88,73,58,28.41,28.22,20,14,42,0.08
2013-12-25,46.2,43.5,41.5,37.0,35.5,33.8,81,73,67,29.03,28.40,23,14,42,0.00
2013-12-26,44.1,40.1,37.2,38.1,35.3,32.9,91,83,75,29.26,28.68,10,4,22,0.00
2013-12-27,47.5,44.4,38.7,42.3,40.0,35.2,92,85,79,28.68,28.16,20,13,40,0.38
2013-12-28,44.4,43.3,42.1,39.7,38.1,36.3,89,82,75,29.43,28.69,19,13,34,0.00
2013-12-29,44.8,42.4,39.0,40.5,38.5,33.6,93,86,79,29.77,29.43,10,6,22,0.00
2013-12-30,50.7,44.9,39.2,47.1,42.2,35.8,95,90,85,29.58,29.22,12,6,24,0.61
2013-12-31,46.6,42.5,36.3,42.8,38.5,33.1,92,86,79,29.58,29.25,11,4,22,0.04
2014-1-1,48.4,42.4,38.1,46.2,39.8,35.4,96,90,85,29.28,28.67,12,4,24,0.08
2014-1-2,47.8,43.8,35.8,42.8,39.5,32.9,94,85,75,29.12,28.67,14,7,25,0.00